sensor_id;sensor_type;location;lat;lon;timestamp;pressure;altitude;pressure_sealevel;temperature;humidity
6938;BME280;40040;42.706;23.372;2022-11-14T00:00:40;144794.81;;;2.47;100.00
6938;BME280;40040;42.706;23.372;2022-11-14T00:03:08;144694.38;;;2.05;100.00
6938;BME280;40040;42.706;23.372;2022-11-14T00:05:38;144782.56;;;2.42;100.00
6938;BME280;40040;42.706;23.372;2022-11-14T00:08:05;144642.91;;;1.84;100.00
6938;BME280;40040;42.706;23.372;2022-11-14T00:10:32;144658.81;;;1.91;100.00
6938;BME280;40040;42.706;23.372;2022-11-14T00:12:59;144721.28;;;2.16;100.00
6938;BME280;40040;42.706;23.372;2022-11-14T00:15:28;144628.19;;;1.78;100.00
6938;BME280;40040;42.706;23.372;2022-11-14T00:17:54;144748.25;;;2.27;100.00
6938;BME280;40040;42.706;23.372;2022-11-14T00:20:21;144731.09;;;2.20;100.00
6938;BME280;40040;42.706;23.372;2022-11-14T00:22:48;144818.13;;;2.56;100.00
6938;BME280;40040;42.706;23.372;2022-11-14T00:25:17;144823.00;;;2.58;100.00
6938;BME280;40040;42.706;23.372;2022-11-14T00:27:43;144774.00;;;2.38;100.00
6938;BME280;40040;42.706;23.372;2022-11-14T00:30:10;144834.06;;;2.63;100.00
6938;BME280;40040;42.706;23.372;2022-11-14T00:32:39;144794.81;;;2.47;100.00
6938;BME280;40040;42.706;23.372;2022-11-14T00:35:07;144900.22;;;2.90;100.00
6938;BME280;40040;42.706;23.372;2022-11-14T00:37:34;144832.81;;;2.62;100.00
6938;BME280;40040;42.706;23.372;2022-11-14T00:40:01;144875.72;;;2.80;100.00
6938;BME280;40040;42.706;23.372;2022-11-14T00:42:28;144860.97;;;2.74;100.00
6938;BME280;40040;42.706;23.372;2022-11-14T00:44:55;144807.06;;;2.52;100.00
6938;BME280;40040;42.706;23.372;2022-11-14T00:47:22;144751.94;;;2.29;100.00
6938;BME280;40040;42.706;23.372;2022-11-14T00:49:50;144777.66;;;2.40;100.00
6938;BME280;40040;42.706;23.372;2022-11-14T00:52:18;144718.84;;;2.15;100.00
6938;BME280;40040;42.706;23.372;2022-11-14T00:54:45;144787.47;;;2.44;100.00
6938;BME280;40040;42.706;23.372;2022-11-14T00:57:15;144807.06;;;2.52;100.00
6938;BME280;40040;42.706;23.372;2022-11-14T00:59:42;144733.53;;;2.21;100.00
6938;BME280;40040;42.706;23.372;2022-11-14T01:05:50;144895.31;;;2.88;100.00
6938;BME280;40040;42.706;23.372;2022-11-14T01:08:18;144809.56;;;2.53;100.00
6938;BME280;40040;42.706;23.372;2022-11-14T01:10:47;144914.97;;;2.96;100.00
6938;BME280;40040;42.706;23.372;2022-11-14T01:13:15;144802.16;;;2.50;100.00
6938;BME280;40040;42.706;23.372;2022-11-14T01:15:45;144907.63;;;2.93;100.00
6938;BME280;40040;42.706;23.372;2022-11-14T01:18:14;144903.91;;;2.91;100.00
6938;BME280;40040;42.706;23.372;2022-11-14T01:20:45;144925.97;;;3.00;100.00
6938;BME280;40040;42.706;23.372;2022-11-14T01:23:15;144880.63;;;2.82;100.00
6938;BME280;40040;42.706;23.372;2022-11-14T01:25:42;144946.81;;;3.09;100.00
6938;BME280;40040;42.706;23.372;2022-11-14T01:28:11;145022.84;;;3.40;100.00
6938;BME280;40040;42.706;23.372;2022-11-14T01:30:39;145035.13;;;3.45;100.00
6938;BME280;40040;42.706;23.372;2022-11-14T01:33:07;145114.88;;;3.78;100.00
6938;BME280;40040;42.706;23.372;2022-11-14T01:35:36;145048.59;;;3.51;100.00
6938;BME280;40040;42.706;23.372;2022-11-14T01:38:04;145004.47;;;3.32;100.00
6938;BME280;40040;42.706;23.372;2022-11-14T01:40:33;145060.91;;;3.56;100.00
6938;BME280;40040;42.706;23.372;2022-11-14T01:45:55;145049.84;;;3.51;100.00
6938;BME280;40040;42.706;23.372;2022-11-14T01:48:25;145107.53;;;3.75;100.00
6938;BME280;40040;42.706;23.372;2022-11-14T01:51:11;144989.72;;;3.26;100.00
6938;BME280;40040;42.706;23.372;2022-11-14T01:53:50;144919.88;;;2.98;100.00
6938;BME280;40040;42.706;23.372;2022-11-14T01:56:48;145078.06;;;3.63;100.00
6938;BME280;40040;42.706;23.372;2022-11-14T01:59:20;144929.63;;;3.02;100.00
6938;BME280;40040;42.706;23.372;2022-11-14T02:02:35;144835.28;;;2.63;100.00
6938;BME280;40040;42.706;23.372;2022-11-14T02:05:06;145059.66;;;3.55;100.00
6938;BME280;40040;42.706;23.372;2022-11-14T02:07:36;144939.47;;;3.06;100.00
6938;BME280;40040;42.706;23.372;2022-11-14T02:10:07;145005.66;;;3.33;100.00
6938;BME280;40040;42.706;23.372;2022-11-14T02:12:36;145071.94;;;3.60;100.00
6938;BME280;40040;42.706;23.372;2022-11-14T02:15:04;144940.72;;;3.06;100.00
6938;BME280;40040;42.706;23.372;2022-11-14T02:17:31;145084.19;;;3.65;100.00
6938;BME280;40040;42.706;23.372;2022-11-14T02:20:24;145076.84;;;3.62;100.00
6938;BME280;40040;42.706;23.372;2022-11-14T02:22:53;144992.22;;;3.27;100.00
6938;BME280;40040;42.706;23.372;2022-11-14T02:25:20;145082.94;;;3.65;100.00
6938;BME280;40040;42.706;23.372;2022-11-14T02:27:48;144973.81;;;3.20;100.00
6938;BME280;40040;42.706;23.372;2022-11-14T02:30:19;145069.50;;;3.59;100.00
6938;BME280;40040;42.706;23.372;2022-11-14T02:32:46;145040.00;;;3.47;100.00
6938;BME280;40040;42.706;23.372;2022-11-14T02:35:13;144998.31;;;3.30;100.00
6938;BME280;40040;42.706;23.372;2022-11-14T02:37:44;144979.97;;;3.22;100.00
6938;BME280;40040;42.706;23.372;2022-11-14T02:40:13;144955.41;;;3.12;100.00
6938;BME280;40040;42.706;23.372;2022-11-14T02:43:10;145111.19;;;3.76;100.00
6938;BME280;40040;42.706;23.372;2022-11-14T02:45:37;144851.22;;;2.70;100.00
6938;BME280;40040;42.706;23.372;2022-11-14T02:48:05;145081.75;;;3.64;100.00
6938;BME280;40040;42.706;23.372;2022-11-14T02:50:32;144972.56;;;3.19;100.00
6938;BME280;40040;42.706;23.372;2022-11-14T02:53:00;145106.28;;;3.74;100.00
6938;BME280;40040;42.706;23.372;2022-11-14T02:55:30;145103.78;;;3.73;100.00
6938;BME280;40040;42.706;23.372;2022-11-14T02:57:57;145005.66;;;3.33;100.00
6938;BME280;40040;42.706;23.372;2022-11-14T03:00:24;144990.97;;;3.27;100.00
6938;BME280;40040;42.706;23.372;2022-11-14T03:02:51;145038.81;;;3.47;100.00
6938;BME280;40040;42.706;23.372;2022-11-14T03:05:18;144990.97;;;3.27;100.00
6938;BME280;40040;42.706;23.372;2022-11-14T03:07:45;145058.41;;;3.55;100.00
6938;BME280;40040;42.706;23.372;2022-11-14T03:10:14;144897.78;;;2.89;100.00
6938;BME280;40040;42.706;23.372;2022-11-14T03:20:26;144753.16;;;2.29;100.00
6938;BME280;40040;42.706;23.372;2022-11-14T03:23:24;144792.38;;;2.46;100.00
6938;BME280;40040;42.706;23.372;2022-11-14T03:25:52;144826.72;;;2.60;100.00
6938;BME280;40040;42.706;23.372;2022-11-14T03:28:19;145025.31;;;3.41;100.00
6938;BME280;40040;42.706;23.372;2022-11-14T03:30:46;144954.19;;;3.12;100.00
6938;BME280;40040;42.706;23.372;2022-11-14T03:33:12;144956.63;;;3.13;100.00
6938;BME280;40040;42.706;23.372;2022-11-14T03:35:41;144990.97;;;3.27;100.00
6938;BME280;40040;42.706;23.372;2022-11-14T03:38:08;144929.63;;;3.02;100.00
6938;BME280;40040;42.706;23.372;2022-11-14T03:40:38;144955.41;;;3.12;100.00
6938;BME280;40040;42.706;23.372;2022-11-14T03:43:06;145010.56;;;3.35;100.00
6938;BME280;40040;42.706;23.372;2022-11-14T03:48:08;145075.59;;;3.62;100.00
6938;BME280;40040;42.706;23.372;2022-11-14T03:50:35;145041.25;;;3.47;100.00
6938;BME280;40040;42.706;23.372;2022-11-14T03:53:03;145046.16;;;3.50;100.00
6938;BME280;40040;42.706;23.372;2022-11-14T03:56:36;145118.53;;;3.79;100.00
6938;BME280;40040;42.706;23.372;2022-11-14T03:58:42;145098.94;;;3.71;100.00
6938;BME280;40040;42.706;23.372;2022-11-14T04:01:09;145116.09;;;3.78;100.00
6938;BME280;40040;42.706;23.372;2022-11-14T04:03:36;145152.91;;;3.93;100.00
6938;BME280;40040;42.706;23.372;2022-11-14T04:06:03;145138.16;;;3.87;100.00
6938;BME280;40040;42.706;23.372;2022-11-14T04:08:30;145120.97;;;3.80;100.00
6938;BME280;40040;42.706;23.372;2022-11-14T04:10:57;145075.59;;;3.62;100.00
6938;BME280;40040;42.706;23.372;2022-11-14T04:13:24;145091.53;;;3.68;100.00
6938;BME280;40040;42.706;23.372;2022-11-14T04:15:56;145069.50;;;3.59;100.00
6938;BME280;40040;42.706;23.372;2022-11-14T04:18:23;145073.16;;;3.61;100.00
6938;BME280;40040;42.706;23.372;2022-11-14T04:20:50;144932.13;;;3.03;100.00
6938;BME280;40040;42.706;23.372;2022-11-14T04:23:18;145035.13;;;3.45;100.00
6938;BME280;40040;42.706;23.372;2022-11-14T04:25:45;144937.03;;;3.05;100.00
6938;BME280;40040;42.706;23.372;2022-11-14T04:28:13;144989.72;;;3.26;100.00
6938;BME280;40040;42.706;23.372;2022-11-14T04:30:40;144860.97;;;2.74;100.00
6938;BME280;40040;42.706;23.372;2022-11-14T04:33:08;144949.28;;;3.10;100.00
6938;BME280;40040;42.706;23.372;2022-11-14T04:35:35;144755.59;;;2.30;100.00
6938;BME280;40040;42.706;23.372;2022-11-14T04:38:02;144851.22;;;2.70;100.00
6938;BME280;40040;42.706;23.372;2022-11-14T04:40:29;144805.81;;;2.51;100.00
6938;BME280;40040;42.706;23.372;2022-11-14T04:42:56;144865.91;;;2.76;100.00
6938;BME280;40040;42.706;23.372;2022-11-14T04:45:22;144731.09;;;2.20;100.00
6938;BME280;40040;42.706;23.372;2022-11-14T04:47:49;144851.22;;;2.70;100.00
6938;BME280;40040;42.706;23.372;2022-11-14T04:50:18;144789.91;;;2.45;100.00
6938;BME280;40040;42.706;23.372;2022-11-14T04:52:44;144791.16;;;2.45;100.00
6938;BME280;40040;42.706;23.372;2022-11-14T04:55:11;144786.25;;;2.43;100.00
6938;BME280;40040;42.706;23.372;2022-11-14T04:57:38;144776.44;;;2.39;100.00
6938;BME280;40040;42.706;23.372;2022-11-14T05:00:06;144820.56;;;2.57;100.00
6938;BME280;40040;42.706;23.372;2022-11-14T05:02:33;144731.09;;;2.20;100.00
6938;BME280;40040;42.706;23.372;2022-11-14T05:05:00;144827.91;;;2.60;100.00
6938;BME280;40040;42.706;23.372;2022-11-14T05:07:28;144824.22;;;2.59;100.00
6938;BME280;40040;42.706;23.372;2022-11-14T05:09:55;144764.16;;;2.34;100.00
6938;BME280;40040;42.706;23.372;2022-11-14T05:12:22;144762.97;;;2.34;100.00
6938;BME280;40040;42.706;23.372;2022-11-14T05:14:49;144819.31;;;2.57;100.00
6938;BME280;40040;42.706;23.372;2022-11-14T05:17:16;144852.44;;;2.70;100.00
6938;BME280;40040;42.706;23.372;2022-11-14T05:19:43;144814.41;;;2.55;100.00
6938;BME280;40040;42.706;23.372;2022-11-14T05:22:09;144857.31;;;2.72;100.00
6938;BME280;40040;42.706;23.372;2022-11-14T05:24:38;144669.81;;;1.95;100.00
6938;BME280;40040;42.706;23.372;2022-11-14T05:27:07;144824.22;;;2.59;100.00
6938;BME280;40040;42.706;23.372;2022-11-14T05:29:34;144811.97;;;2.54;100.00
6938;BME280;40040;42.706;23.372;2022-11-14T05:36:15;144789.91;;;2.45;100.00
6938;BME280;40040;42.706;23.372;2022-11-14T05:38:45;144918.63;;;2.97;100.00
6938;BME280;40040;42.706;23.372;2022-11-14T05:41:14;144907.63;;;2.93;100.00
6938;BME280;40040;42.706;23.372;2022-11-14T05:43:42;144914.97;;;2.96;100.00
6938;BME280;40040;42.706;23.372;2022-11-14T05:46:11;144838.97;;;2.65;100.00
6938;BME280;40040;42.706;23.372;2022-11-14T05:48:38;144851.22;;;2.70;100.00
6938;BME280;40040;42.706;23.372;2022-11-14T05:51:08;144857.31;;;2.72;100.00
6938;BME280;40040;42.706;23.372;2022-11-14T05:53:36;144884.28;;;2.83;100.00
6938;BME280;40040;42.706;23.372;2022-11-14T05:56:03;144900.22;;;2.90;100.00
6938;BME280;40040;42.706;23.372;2022-11-14T05:58:33;144760.50;;;2.33;100.00
6938;BME280;40040;42.706;23.372;2022-11-14T06:01:01;144856.13;;;2.72;100.00
6938;BME280;40040;42.706;23.372;2022-11-14T06:03:30;144917.38;;;2.97;100.00
6938;BME280;40040;42.706;23.372;2022-11-14T06:06:01;144941.91;;;3.07;100.00
6938;BME280;40040;42.706;23.372;2022-11-14T06:08:28;144854.88;;;2.71;100.00
6938;BME280;40040;42.706;23.372;2022-11-14T06:11:00;144887.97;;;2.85;100.00
6938;BME280;40040;42.706;23.372;2022-11-14T06:13:27;144870.81;;;2.78;100.00
6938;BME280;40040;42.706;23.372;2022-11-14T06:15:58;144885.53;;;2.84;100.00
6938;BME280;40040;42.706;23.372;2022-11-14T06:18:26;144956.63;;;3.13;100.00
6938;BME280;40040;42.706;23.372;2022-11-14T06:20:53;144826.72;;;2.60;100.00
6938;BME280;40040;42.706;23.372;2022-11-14T06:23:24;144959.06;;;3.14;100.00
6938;BME280;40040;42.706;23.372;2022-11-14T06:25:50;144928.44;;;3.01;100.00
6938;BME280;40040;42.706;23.372;2022-11-14T06:28:17;144847.53;;;2.68;100.00
6938;BME280;40040;42.706;23.372;2022-11-14T06:30:44;144865.91;;;2.76;100.00
6938;BME280;40040;42.706;23.372;2022-11-14T06:33:13;144821.81;;;2.58;100.00
6938;BME280;40040;42.706;23.372;2022-11-14T06:35:40;144816.88;;;2.56;100.00
6938;BME280;40040;42.706;23.372;2022-11-14T06:38:06;144929.63;;;3.02;100.00
6938;BME280;40040;42.706;23.372;2022-11-14T06:40:33;144945.63;;;3.08;100.00
6938;BME280;40040;42.706;23.372;2022-11-14T06:43:00;144851.22;;;2.70;100.00
6938;BME280;40040;42.706;23.372;2022-11-14T06:45:27;144885.53;;;2.84;100.00
6938;BME280;40040;42.706;23.372;2022-11-14T06:47:57;144956.63;;;3.13;100.00
6938;BME280;40040;42.706;23.372;2022-11-14T06:50:25;144826.72;;;2.60;100.00
6938;BME280;40040;42.706;23.372;2022-11-14T06:52:52;144976.22;;;3.21;100.00
6938;BME280;40040;42.706;23.372;2022-11-14T06:55:19;144883.06;;;2.83;100.00
6938;BME280;40040;42.706;23.372;2022-11-14T06:57:51;144916.19;;;2.96;100.00
6938;BME280;40040;42.706;23.372;2022-11-14T07:00:19;144916.19;;;2.96;100.00
6938;BME280;40040;42.706;23.372;2022-11-14T07:02:46;144894.13;;;2.87;100.00
6938;BME280;40040;42.706;23.372;2022-11-14T07:05:13;144957.88;;;3.13;100.00
6938;BME280;40040;42.706;23.372;2022-11-14T07:07:42;144846.31;;;2.68;100.00
6938;BME280;40040;42.706;23.372;2022-11-14T07:10:10;144972.56;;;3.19;100.00
6938;BME280;40040;42.706;23.372;2022-11-14T07:12:36;144908.81;;;2.93;100.00
6938;BME280;40040;42.706;23.372;2022-11-14T07:15:04;144929.63;;;3.02;100.00
6938;BME280;40040;42.706;23.372;2022-11-14T07:17:33;145024.06;;;3.40;100.00
6938;BME280;40040;42.706;23.372;2022-11-14T07:20:00;145015.50;;;3.37;100.00
6938;BME280;40040;42.706;23.372;2022-11-14T07:22:27;144962.78;;;3.15;100.00
6938;BME280;40040;42.706;23.372;2022-11-14T07:24:56;144912.47;;;2.95;100.00
6938;BME280;40040;42.706;23.372;2022-11-14T07:27:23;144933.31;;;3.03;100.00
6938;BME280;40040;42.706;23.372;2022-11-14T07:29:49;145046.16;;;3.50;100.00
6938;BME280;40040;42.706;23.372;2022-11-14T07:32:16;145025.31;;;3.41;100.00
6938;BME280;40040;42.706;23.372;2022-11-14T07:34:43;145005.66;;;3.33;100.00
6938;BME280;40040;42.706;23.372;2022-11-14T07:37:10;144966.47;;;3.17;100.00
6938;BME280;40040;42.706;23.372;2022-11-14T07:39:37;144960.31;;;3.14;100.00
6938;BME280;40040;42.706;23.372;2022-11-14T07:42:06;144919.88;;;2.98;100.00
6938;BME280;40040;42.706;23.372;2022-11-14T07:44:33;145049.84;;;3.51;100.00
6938;BME280;40040;42.706;23.372;2022-11-14T07:47:00;145032.66;;;3.44;100.00
6938;BME280;40040;42.706;23.372;2022-11-14T07:49:27;145016.72;;;3.37;100.00
6938;BME280;40040;42.706;23.372;2022-11-14T07:51:54;145116.09;;;3.78;100.00
6938;BME280;40040;42.706;23.372;2022-11-14T07:54:21;145106.28;;;3.74;100.00
6938;BME280;40040;42.706;23.372;2022-11-14T07:56:49;145040.00;;;3.47;100.00
6938;BME280;40040;42.706;23.372;2022-11-14T07:59:17;145147.97;;;3.91;100.00
6938;BME280;40040;42.706;23.372;2022-11-14T08:01:44;145114.88;;;3.78;100.00
6938;BME280;40040;42.706;23.372;2022-11-14T08:04:11;145021.63;;;3.39;100.00
6938;BME280;40040;42.706;23.372;2022-11-14T08:06:38;145162.72;;;3.97;100.00
6938;BME280;40040;42.706;23.372;2022-11-14T08:09:05;145262.13;;;4.38;100.00
6938;BME280;40040;42.706;23.372;2022-11-14T08:11:32;145216.72;;;4.19;100.00
6938;BME280;40040;42.706;23.372;2022-11-14T08:14:15;145344.38;;;4.72;100.00
6938;BME280;40040;42.706;23.372;2022-11-14T08:16:44;145364.00;;;4.80;100.00
6938;BME280;40040;42.706;23.372;2022-11-14T08:19:11;145297.72;;;4.52;100.00
6938;BME280;40040;42.706;23.372;2022-11-14T08:21:38;145287.88;;;4.48;100.00
6938;BME280;40040;42.706;23.372;2022-11-14T08:24:05;145243.72;;;4.30;100.00
6938;BME280;40040;42.706;23.372;2022-11-14T08:26:32;145300.16;;;4.53;100.00
6938;BME280;40040;42.706;23.372;2022-11-14T08:28:59;145282.97;;;4.46;100.00
6938;BME280;40040;42.706;23.372;2022-11-14T08:31:27;145270.69;;;4.41;100.00
6938;BME280;40040;42.706;23.372;2022-11-14T08:33:55;145305.06;;;4.55;100.00
6938;BME280;40040;42.706;23.372;2022-11-14T08:36:22;145314.91;;;4.59;100.00
6938;BME280;40040;42.706;23.372;2022-11-14T08:38:49;145287.88;;;4.48;100.00
6938;BME280;40040;42.706;23.372;2022-11-14T08:41:15;145182.34;;;4.05;100.00
6938;BME280;40040;42.706;23.372;2022-11-14T08:43:42;145317.34;;;4.60;100.00
6938;BME280;40040;42.706;23.372;2022-11-14T08:46:09;145328.44;;;4.65;100.00
6938;BME280;40040;42.706;23.372;2022-11-14T08:48:36;145341.94;;;4.71;100.00
6938;BME280;40040;42.706;23.372;2022-11-14T08:51:05;145349.28;;;4.74;100.00
6938;BME280;40040;42.706;23.372;2022-11-14T08:53:33;145366.50;;;4.81;100.00
6938;BME280;40040;42.706;23.372;2022-11-14T08:56:00;145274.38;;;4.43;100.00
6938;BME280;40040;42.706;23.372;2022-11-14T08:58:27;145243.72;;;4.30;100.00
6938;BME280;40040;42.706;23.372;2022-11-14T09:00:59;145346.81;;;4.73;100.00
6938;BME280;40040;42.706;23.372;2022-11-14T09:03:26;145324.75;;;4.64;100.00
6938;BME280;40040;42.706;23.372;2022-11-14T09:05:53;145280.53;;;4.45;100.00
6938;BME280;40040;42.706;23.372;2022-11-14T09:08:22;145370.16;;;4.82;100.00
6938;BME280;40040;42.706;23.372;2022-11-14T09:10:49;145206.88;;;4.15;100.00
6938;BME280;40040;42.706;23.372;2022-11-14T09:13:16;145311.25;;;4.58;100.00
6938;BME280;40040;42.706;23.372;2022-11-14T09:15:43;145381.19;;;4.87;100.00
6938;BME280;40040;42.706;23.372;2022-11-14T09:18:11;145378.78;;;4.86;100.00
6938;BME280;40040;42.706;23.372;2022-11-14T09:20:39;145393.47;;;4.92;100.00
6938;BME280;40040;42.706;23.372;2022-11-14T09:23:07;145318.59;;;4.61;100.00
6938;BME280;40040;42.706;23.372;2022-11-14T09:25:36;145405.81;;;4.97;100.00
6938;BME280;40040;42.706;23.372;2022-11-14T09:28:04;145339.47;;;4.70;100.00
6938;BME280;40040;42.706;23.372;2022-11-14T09:30:32;145383.69;;;4.88;100.00
6938;BME280;40040;42.706;23.372;2022-11-14T09:33:00;145294.06;;;4.51;100.00
6938;BME280;40040;42.706;23.372;2022-11-14T09:35:27;145415.59;;;5.01;100.00
6938;BME280;40040;42.706;23.372;2022-11-14T09:38:01;145371.41;;;4.83;100.00
6938;BME280;40040;42.706;23.372;2022-11-14T09:40:29;145423.00;;;5.04;100.00
6938;BME280;40040;42.706;23.372;2022-11-14T09:46:01;145437.72;;;5.10;100.00
6938;BME280;40040;42.706;23.372;2022-11-14T09:48:30;145445.06;;;5.13;100.00
6938;BME280;40040;42.706;23.372;2022-11-14T09:51:05;145388.59;;;4.90;100.00
6938;BME280;40040;42.706;23.372;2022-11-14T09:53:36;145492.97;;;5.32;100.00
6938;BME280;40040;42.706;23.372;2022-11-14T09:56:09;145462.25;;;5.20;100.00
6938;BME280;40040;42.706;23.372;2022-11-14T09:58:39;145470.84;;;5.23;100.00
6938;BME280;40040;42.706;23.372;2022-11-14T10:01:13;145533.53;;;5.49;100.00
6938;BME280;40040;42.706;23.372;2022-11-14T10:03:48;145540.91;;;5.52;100.00
6938;BME280;40040;42.706;23.372;2022-11-14T10:06:25;145590.03;;;5.72;100.00
6938;BME280;40040;42.706;23.372;2022-11-14T10:12:04;145656.47;;;5.99;100.00
6938;BME280;40040;42.706;23.372;2022-11-14T10:17:59;145741.31;;;6.34;100.00
6938;BME280;40040;42.706;23.372;2022-11-14T10:20:32;145748.66;;;6.37;100.00
6938;BME280;40040;42.706;23.372;2022-11-14T10:23:08;145658.91;;;6.00;100.00
6938;BME280;40040;42.706;23.372;2022-11-14T10:25:48;145641.72;;;5.93;100.00
6938;BME280;40040;42.706;23.372;2022-11-14T10:28:34;145713.03;;;6.22;100.00
6938;BME280;40040;42.706;23.372;2022-11-14T10:31:06;145693.34;;;6.14;100.00
6938;BME280;40040;42.706;23.372;2022-11-14T10:33:48;145759.75;;;6.41;100.00
6938;BME280;40040;42.706;23.372;2022-11-14T10:36:22;145930.72;;;7.11;100.00
6938;BME280;40040;42.706;23.372;2022-11-14T10:39:00;146005.75;;;7.42;100.00
6938;BME280;40040;42.706;23.372;2022-11-14T10:41:29;145987.28;;;7.34;100.00
6938;BME280;40040;42.706;23.372;2022-11-14T10:43:57;146128.84;;;7.92;100.00
6938;BME280;40040;42.706;23.372;2022-11-14T10:46:26;146180.56;;;8.13;100.00
6938;BME280;40040;42.706;23.372;2022-11-14T10:48:58;146228.66;;;8.33;100.00
6938;BME280;40040;42.706;23.372;2022-11-14T10:51:32;146406.00;;;9.05;100.00
6938;BME280;40040;42.706;23.372;2022-11-14T10:54:03;146602.03;;;9.85;100.00
6938;BME280;40040;42.706;23.372;2022-11-14T10:56:32;146660.03;;;10.08;100.00
6938;BME280;40040;42.706;23.372;2022-11-14T10:58:59;146769.78;;;10.53;100.00
6938;BME280;40040;42.706;23.372;2022-11-14T11:01:34;146833.94;;;10.79;100.00
6938;BME280;40040;42.706;23.372;2022-11-14T11:04:23;147026.50;;;11.58;100.00
6938;BME280;40040;42.706;23.372;2022-11-14T11:06:52;147137.72;;;12.03;100.00
6938;BME280;40040;42.706;23.372;2022-11-14T11:09:20;147203.16;;;12.29;100.00
6938;BME280;40040;42.706;23.372;2022-11-14T11:12:07;147271.13;;;12.57;100.00
6938;BME280;40040;42.706;23.372;2022-11-14T11:14:34;147305.72;;;12.71;100.00
6938;BME280;40040;42.706;23.372;2022-11-14T11:17:23;147404.66;;;13.11;100.00
6938;BME280;40040;42.706;23.372;2022-11-14T11:19:52;147358.88;;;12.93;100.00
6938;BME280;40040;42.706;23.372;2022-11-14T11:22:28;147325.53;;;12.79;100.00
6938;BME280;40040;42.706;23.372;2022-11-14T11:24:55;147459.06;;;13.33;100.00
6938;BME280;40040;42.706;23.372;2022-11-14T11:27:24;147533.22;;;13.64;100.00
6938;BME280;40040;42.706;23.372;2022-11-14T11:30:11;147501.09;;;13.50;100.00
6938;BME280;40040;42.706;23.372;2022-11-14T11:32:43;147519.66;;;13.58;100.00
6938;BME280;40040;42.706;23.372;2022-11-14T11:35:13;147545.59;;;13.69;100.00
6938;BME280;40040;42.706;23.372;2022-11-14T11:37:43;147652.00;;;14.12;100.00
6938;BME280;40040;42.706;23.372;2022-11-14T11:40:19;147689.16;;;14.27;100.00
6938;BME280;40040;42.706;23.372;2022-11-14T11:42:52;147874.78;;;15.02;100.00
6938;BME280;40040;42.706;23.372;2022-11-14T11:45:23;147908.22;;;15.16;92.43
6938;BME280;40040;42.706;23.372;2022-11-14T11:47:57;147983.78;;;15.46;90.13
6938;BME280;40040;42.706;23.372;2022-11-14T11:50:29;147972.66;;;15.42;89.75
6938;BME280;40040;42.706;23.372;2022-11-14T11:53:02;148003.63;;;15.54;88.98
6938;BME280;40040;42.706;23.372;2022-11-14T11:55:35;147931.75;;;15.25;88.40
6938;BME280;40040;42.706;23.372;2022-11-14T11:58:11;148084.09;;;15.87;87.69
6938;BME280;40040;42.706;23.372;2022-11-14T12:00:41;148115.09;;;16.00;86.93
6938;BME280;40040;42.706;23.372;2022-11-14T12:03:11;148189.44;;;16.30;86.22
6938;BME280;40040;42.706;23.372;2022-11-14T12:05:49;148209.25;;;16.38;83.54
6938;BME280;40040;42.706;23.372;2022-11-14T12:08:25;148362.97;;;17.00;81.42
6938;BME280;40040;42.706;23.372;2022-11-14T12:10:55;148283.66;;;16.68;81.98
6938;BME280;40040;42.706;23.372;2022-11-14T12:13:58;148345.63;;;16.93;83.11
6938;BME280;40040;42.706;23.372;2022-11-14T12:16:46;148415.06;;;17.21;81.63
6938;BME280;40040;42.706;23.372;2022-11-14T12:19:48;148453.50;;;17.37;81.03
6938;BME280;40040;42.706;23.372;2022-11-14T12:22:37;148487.06;;;17.50;78.61
6938;BME280;40040;42.706;23.372;2022-11-14T12:25:33;148487.06;;;17.50;79.76
6938;BME280;40040;42.706;23.372;2022-11-14T12:28:14;148400.19;;;17.15;79.61
6938;BME280;40040;42.706;23.372;2022-11-14T12:30:46;148439.84;;;17.31;79.29
6938;BME280;40040;42.706;23.372;2022-11-14T12:33:19;148422.53;;;17.24;80.22
6938;BME280;40040;42.706;23.372;2022-11-14T12:35:51;148479.59;;;17.47;79.77
6938;BME280;40040;42.706;23.372;2022-11-14T12:38:21;148367.94;;;17.02;80.75
6938;BME280;40040;42.706;23.372;2022-11-14T12:40:50;148308.44;;;16.78;82.10
6938;BME280;40040;42.706;23.372;2022-11-14T12:43:31;148367.94;;;17.02;81.20
6938;BME280;40040;42.706;23.372;2022-11-14T12:46:00;148348.13;;;16.94;81.17
6938;BME280;40040;42.706;23.372;2022-11-14T12:48:36;148194.41;;;16.32;82.76
6938;BME280;40040;42.706;23.372;2022-11-14T12:51:08;148196.84;;;16.33;82.97
6938;BME280;40040;42.706;23.372;2022-11-14T12:53:54;148022.22;;;15.62;83.90
6938;BME280;40040;42.706;23.372;2022-11-14T12:56:47;148087.81;;;15.89;85.74
6938;BME280;40040;42.706;23.372;2022-11-14T12:59:38;147981.31;;;15.45;87.77
6938;BME280;40040;42.706;23.372;2022-11-14T13:08:14;147853.75;;;14.94;89.33
6938;BME280;40040;42.706;23.372;2022-11-14T13:10:46;147850.06;;;14.92;90.08
6938;BME280;40040;42.706;23.372;2022-11-14T13:13:14;147687.91;;;14.26;90.51
6938;BME280;40040;42.706;23.372;2022-11-14T13:15:59;147669.31;;;14.19;93.25
6938;BME280;40040;42.706;23.372;2022-11-14T13:18:50;147517.16;;;13.57;93.75
6938;BME280;40040;42.706;23.372;2022-11-14T13:21:36;147603.75;;;13.92;94.63
6938;BME280;40040;42.706;23.372;2022-11-14T13:24:13;147607.44;;;13.94;95.59
6938;BME280;40040;42.706;23.372;2022-11-14T13:26:47;147624.78;;;14.01;95.52
6938;BME280;40040;42.706;23.372;2022-11-14T13:35:48;147544.38;;;13.68;97.04
6938;BME280;40040;42.706;23.372;2022-11-14T13:38:42;147558.00;;;13.74;97.41
6938;BME280;40040;42.706;23.372;2022-11-14T13:41:34;147576.53;;;13.81;96.19
6938;BME280;40040;42.706;23.372;2022-11-14T13:44:22;147558.00;;;13.74;96.71
6938;BME280;40040;42.706;23.372;2022-11-14T13:49:58;147503.56;;;13.51;98.28
6938;BME280;40040;42.706;23.372;2022-11-14T13:52:28;147488.75;;;13.45;98.77
6938;BME280;40040;42.706;23.372;2022-11-14T13:54:56;147481.28;;;13.42;97.97